York, Pennsylvania
Current Conditions -  °F | °C
As of 2:53 PM on Thursday 18 Dec 2014 (Local Time) from KTHV Reporting Station
Overcast Overcast  
Wind Chill: 27°   Ceiling: 3200
Heat Index: 36°   Visibility: 10mi
Dew Point: 23°   Wind: 14mph
Humidity: 59%   Direction: 300°WNW
Pressure: 30.07"   Gusts: NA
Location:  39.96°N, 76.72°W
Report Text: KTHV 181953Z AUTO 30012KT 10SM OVC032 02/M05 A3007 RMK AO2 SLP189 T00221050
Loading
Personal Weather Stations






























Interactive Weather Map New forecast layout! Learn more

10-Day Weather Forecast

Advertisements
Track Severe Weather on mobile